Tobarra, Spain
Current Conditions -  °F | °C
As of 11:00 AM on Thursday 23 Oct 2014 (Local Time) from LEAB Reporting Station
Clear Clear  
Wind Chill: 55°   Ceiling: Unl
Heat Index: 55°   Visibility: 6mi
Dew Point: 28°   Wind: 3mph
Humidity: 36%   Direction: 260°W
Pressure: 30.3"   Gusts: NA
Location:  38.59°N, 1.69°W
Report Text: LEAB 230900Z 26003KT 180V310 CAVOK 13/M02 Q1026 NOSIG
Loading
Personal Weather Stations






























Interactive Weather Map
Tropical Storm Tracking
New forecast layout! Learn more

10-Day Weather Forecast

Advertisements
Track Severe Weather on mobile